sensor_id;sensor_type;location;lat;lon;timestamp;P1;durP1;ratioP1;P2;durP2;ratioP2
40044;SDS011;25735;48.122;11.422;2022-12-11T00:00:43;39.92;;;20.17;;
40044;SDS011;25735;48.122;11.422;2022-12-11T00:03:08;33.33;;;19.35;;
40044;SDS011;25735;48.122;11.422;2022-12-11T00:05:33;40.25;;;20.95;;
40044;SDS011;25735;48.122;11.422;2022-12-11T00:07:59;37.15;;;20.00;;
40044;SDS011;25735;48.122;11.422;2022-12-11T00:10:24;36.35;;;20.15;;
40044;SDS011;25735;48.122;11.422;2022-12-11T00:12:49;35.67;;;20.75;;
40044;SDS011;25735;48.122;11.422;2022-12-11T00:15:15;34.03;;;18.90;;
40044;SDS011;25735;48.122;11.422;2022-12-11T00:17:40;34.75;;;18.95;;
40044;SDS011;25735;48.122;11.422;2022-12-11T00:20:06;41.30;;;21.90;;
40044;SDS011;25735;48.122;11.422;2022-12-11T00:22:32;34.85;;;18.95;;
40044;SDS011;25735;48.122;11.422;2022-12-11T00:24:57;33.55;;;18.60;;
40044;SDS011;25735;48.122;11.422;2022-12-11T00:27:23;38.28;;;22.02;;
40044;SDS011;25735;48.122;11.422;2022-12-11T00:29:48;36.22;;;18.70;;
40044;SDS011;25735;48.122;11.422;2022-12-11T00:32:14;32.97;;;19.27;;
40044;SDS011;25735;48.122;11.422;2022-12-11T00:34:39;34.83;;;18.23;;
40044;SDS011;25735;48.122;11.422;2022-12-11T00:37:04;33.25;;;18.50;;
40044;SDS011;25735;48.122;11.422;2022-12-11T00:39:29;35.40;;;20.55;;
40044;SDS011;25735;48.122;11.422;2022-12-11T00:41:55;35.47;;;19.17;;
40044;SDS011;25735;48.122;11.422;2022-12-11T00:44:20;32.97;;;20.27;;
40044;SDS011;25735;48.122;11.422;2022-12-11T00:46:45;33.78;;;18.40;;
40044;SDS011;25735;48.122;11.422;2022-12-11T00:49:11;31.60;;;18.08;;
40044;SDS011;25735;48.122;11.422;2022-12-11T00:51:36;33.30;;;18.80;;
40044;SDS011;25735;48.122;11.422;2022-12-11T00:54:02;30.95;;;18.33;;
40044;SDS011;25735;48.122;11.422;2022-12-11T00:56:27;37.00;;;18.85;;
40044;SDS011;25735;48.122;11.422;2022-12-11T00:58:52;34.08;;;18.77;;
40044;SDS011;25735;48.122;11.422;2022-12-11T01:01:19;28.30;;;16.92;;
40044;SDS011;25735;48.122;11.422;2022-12-11T01:03:47;28.45;;;16.88;;
40044;SDS011;25735;48.122;11.422;2022-12-11T01:06:16;29.88;;;16.83;;
40044;SDS011;25735;48.122;11.422;2022-12-11T01:08:43;32.80;;;17.50;;
40044;SDS011;25735;48.122;11.422;2022-12-11T01:11:10;29.85;;;17.35;;
40044;SDS011;25735;48.122;11.422;2022-12-11T01:13:38;28.00;;;16.48;;
40044;SDS011;25735;48.122;11.422;2022-12-11T01:16:08;34.20;;;18.90;;
40044;SDS011;25735;48.122;11.422;2022-12-11T01:18:35;30.48;;;15.52;;
40044;SDS011;25735;48.122;11.422;2022-12-11T01:21:05;31.05;;;16.67;;
40044;SDS011;25735;48.122;11.422;2022-12-11T01:23:31;26.15;;;15.45;;
40044;SDS011;25735;48.122;11.422;2022-12-11T01:25:56;29.80;;;17.20;;
40044;SDS011;25735;48.122;11.422;2022-12-11T01:28:22;27.45;;;16.02;;
40044;SDS011;25735;48.122;11.422;2022-12-11T01:30:47;27.20;;;16.10;;
40044;SDS011;25735;48.122;11.422;2022-12-11T01:33:12;26.05;;;15.23;;
40044;SDS011;25735;48.122;11.422;2022-12-11T01:35:38;28.67;;;16.20;;
40044;SDS011;25735;48.122;11.422;2022-12-11T01:38:04;26.85;;;15.80;;
40044;SDS011;25735;48.122;11.422;2022-12-11T01:40:29;27.63;;;15.75;;
40044;SDS011;25735;48.122;11.422;2022-12-11T01:42:54;25.30;;;14.52;;
40044;SDS011;25735;48.122;11.422;2022-12-11T01:47:45;28.73;;;15.77;;
40044;SDS011;25735;48.122;11.422;2022-12-11T01:50:10;24.30;;;14.38;;
40044;SDS011;25735;48.122;11.422;2022-12-11T01:52:36;28.00;;;14.52;;
40044;SDS011;25735;48.122;11.422;2022-12-11T01:55:01;27.27;;;15.02;;
40044;SDS011;25735;48.122;11.422;2022-12-11T01:57:26;23.38;;;13.55;;
40044;SDS011;25735;48.122;11.422;2022-12-11T01:59:52;23.27;;;14.80;;
40044;SDS011;25735;48.122;11.422;2022-12-11T02:02:21;25.10;;;14.73;;
40044;SDS011;25735;48.122;11.422;2022-12-11T02:04:51;28.08;;;15.05;;
40044;SDS011;25735;48.122;11.422;2022-12-11T02:07:16;23.70;;;13.88;;
40044;SDS011;25735;48.122;11.422;2022-12-11T02:09:42;26.08;;;14.82;;
40044;SDS011;25735;48.122;11.422;2022-12-11T02:17:37;22.42;;;12.32;;
40044;SDS011;25735;48.122;11.422;2022-12-11T02:23:05;24.85;;;14.05;;
40044;SDS011;25735;48.122;11.422;2022-12-11T02:28:16;25.38;;;14.82;;
40044;SDS011;25735;48.122;11.422;2022-12-11T02:30:46;26.42;;;14.70;;
40044;SDS011;25735;48.122;11.422;2022-12-11T02:33:15;24.60;;;13.70;;
40044;SDS011;25735;48.122;11.422;2022-12-11T02:35:45;21.55;;;14.18;;
40044;SDS011;25735;48.122;11.422;2022-12-11T02:38:32;25.70;;;14.45;;
40044;SDS011;25735;48.122;11.422;2022-12-11T02:41:00;25.60;;;14.73;;
40044;SDS011;25735;48.122;11.422;2022-12-11T02:43:26;26.20;;;15.95;;
40044;SDS011;25735;48.122;11.422;2022-12-11T02:45:55;22.38;;;13.38;;
40044;SDS011;25735;48.122;11.422;2022-12-11T02:48:22;26.05;;;15.27;;
40044;SDS011;25735;48.122;11.422;2022-12-11T02:50:49;25.55;;;14.82;;
40044;SDS011;25735;48.122;11.422;2022-12-11T02:53:18;27.27;;;16.17;;
40044;SDS011;25735;48.122;11.422;2022-12-11T02:55:49;28.08;;;15.43;;
40044;SDS011;25735;48.122;11.422;2022-12-11T02:58:21;29.60;;;14.77;;
40044;SDS011;25735;48.122;11.422;2022-12-11T03:00:51;25.63;;;15.10;;
40044;SDS011;25735;48.122;11.422;2022-12-11T03:03:17;23.85;;;14.75;;
40044;SDS011;25735;48.122;11.422;2022-12-11T03:05:42;23.02;;;15.13;;
40044;SDS011;25735;48.122;11.422;2022-12-11T03:08:10;25.67;;;15.20;;
40044;SDS011;25735;48.122;11.422;2022-12-11T03:10:35;23.05;;;13.43;;
40044;SDS011;25735;48.122;11.422;2022-12-11T03:13:01;22.33;;;14.43;;
40044;SDS011;25735;48.122;11.422;2022-12-11T03:15:33;26.90;;;14.57;;
40044;SDS011;25735;48.122;11.422;2022-12-11T03:18:24;21.05;;;13.35;;
40044;SDS011;25735;48.122;11.422;2022-12-11T03:21:04;25.35;;;14.07;;
40044;SDS011;25735;48.122;11.422;2022-12-11T03:23:40;22.42;;;13.50;;
40044;SDS011;25735;48.122;11.422;2022-12-11T03:26:12;25.98;;;13.77;;
40044;SDS011;25735;48.122;11.422;2022-12-11T03:28:50;27.40;;;15.45;;
40044;SDS011;25735;48.122;11.422;2022-12-11T03:31:42;22.60;;;12.65;;
40044;SDS011;25735;48.122;11.422;2022-12-11T03:34:12;25.02;;;14.85;;
40044;SDS011;25735;48.122;11.422;2022-12-11T03:36:43;27.13;;;15.07;;
40044;SDS011;25735;48.122;11.422;2022-12-11T03:39:12;24.08;;;13.35;;
40044;SDS011;25735;48.122;11.422;2022-12-11T03:41:41;24.35;;;13.90;;
40044;SDS011;25735;48.122;11.422;2022-12-11T03:44:09;21.30;;;13.45;;
40044;SDS011;25735;48.122;11.422;2022-12-11T03:46:37;25.00;;;14.55;;
40044;SDS011;25735;48.122;11.422;2022-12-11T03:49:06;22.92;;;14.10;;
40044;SDS011;25735;48.122;11.422;2022-12-11T03:51:37;24.30;;;14.23;;
40044;SDS011;25735;48.122;11.422;2022-12-11T03:54:03;24.15;;;13.63;;
40044;SDS011;25735;48.122;11.422;2022-12-11T03:56:29;23.92;;;14.55;;
40044;SDS011;25735;48.122;11.422;2022-12-11T03:58:57;20.73;;;13.23;;
40044;SDS011;25735;48.122;11.422;2022-12-11T04:01:23;25.23;;;14.32;;
40044;SDS011;25735;48.122;11.422;2022-12-11T04:03:48;24.60;;;13.73;;
40044;SDS011;25735;48.122;11.422;2022-12-11T04:06:13;25.02;;;13.95;;
40044;SDS011;25735;48.122;11.422;2022-12-11T04:08:38;26.65;;;14.32;;
40044;SDS011;25735;48.122;11.422;2022-12-11T04:11:04;22.73;;;13.13;;
40044;SDS011;25735;48.122;11.422;2022-12-11T04:13:48;21.80;;;13.65;;
40044;SDS011;25735;48.122;11.422;2022-12-11T04:16:33;25.90;;;14.95;;
40044;SDS011;25735;48.122;11.422;2022-12-11T04:18:58;23.52;;;13.57;;
40044;SDS011;25735;48.122;11.422;2022-12-11T04:21:42;24.08;;;14.60;;
40044;SDS011;25735;48.122;11.422;2022-12-11T04:24:26;20.85;;;13.10;;
40044;SDS011;25735;48.122;11.422;2022-12-11T04:26:51;24.90;;;14.18;;
40044;SDS011;25735;48.122;11.422;2022-12-11T04:29:16;21.20;;;13.43;;
40044;SDS011;25735;48.122;11.422;2022-12-11T04:31:41;25.58;;;14.75;;
40044;SDS011;25735;48.122;11.422;2022-12-11T04:34:07;19.88;;;12.23;;
40044;SDS011;25735;48.122;11.422;2022-12-11T04:36:32;24.70;;;14.05;;
40044;SDS011;25735;48.122;11.422;2022-12-11T04:38:58;23.83;;;14.30;;
40044;SDS011;25735;48.122;11.422;2022-12-11T04:41:23;23.98;;;14.05;;
40044;SDS011;25735;48.122;11.422;2022-12-11T04:43:48;24.13;;;13.68;;
40044;SDS011;25735;48.122;11.422;2022-12-11T04:46:15;21.60;;;13.27;;
40044;SDS011;25735;48.122;11.422;2022-12-11T04:48:42;20.15;;;12.57;;
40044;SDS011;25735;48.122;11.422;2022-12-11T04:51:09;24.98;;;14.10;;
40044;SDS011;25735;48.122;11.422;2022-12-11T04:53:34;25.17;;;13.00;;
40044;SDS011;25735;48.122;11.422;2022-12-11T04:56:00;24.15;;;13.73;;
40044;SDS011;25735;48.122;11.422;2022-12-11T04:58:28;24.02;;;15.50;;
40044;SDS011;25735;48.122;11.422;2022-12-11T05:00:54;26.23;;;15.38;;
40044;SDS011;25735;48.122;11.422;2022-12-11T05:03:19;25.40;;;14.82;;
40044;SDS011;25735;48.122;11.422;2022-12-11T05:05:51;25.00;;;13.82;;
40044;SDS011;25735;48.122;11.422;2022-12-11T05:08:18;25.45;;;15.05;;
40044;SDS011;25735;48.122;11.422;2022-12-11T05:10:53;26.77;;;15.63;;
40044;SDS011;25735;48.122;11.422;2022-12-11T05:13:22;29.30;;;16.60;;
40044;SDS011;25735;48.122;11.422;2022-12-11T05:15:48;30.40;;;17.60;;
40044;SDS011;25735;48.122;11.422;2022-12-11T05:18:14;24.50;;;13.90;;
40044;SDS011;25735;48.122;11.422;2022-12-11T05:20:39;24.85;;;15.13;;
40044;SDS011;25735;48.122;11.422;2022-12-11T05:23:04;27.95;;;15.07;;
40044;SDS011;25735;48.122;11.422;2022-12-11T05:25:29;28.02;;;14.18;;
40044;SDS011;25735;48.122;11.422;2022-12-11T05:27:55;22.92;;;14.23;;
40044;SDS011;25735;48.122;11.422;2022-12-11T05:30:20;20.42;;;12.52;;
40044;SDS011;25735;48.122;11.422;2022-12-11T05:32:45;25.08;;;13.93;;
40044;SDS011;25735;48.122;11.422;2022-12-11T05:35:10;23.30;;;12.93;;
40044;SDS011;25735;48.122;11.422;2022-12-11T05:37:36;20.05;;;12.00;;
40044;SDS011;25735;48.122;11.422;2022-12-11T05:40:01;21.58;;;11.93;;
40044;SDS011;25735;48.122;11.422;2022-12-11T05:42:30;21.60;;;11.63;;
40044;SDS011;25735;48.122;11.422;2022-12-11T05:44:55;21.38;;;12.32;;
40044;SDS011;25735;48.122;11.422;2022-12-11T05:47:20;23.80;;;12.27;;
40044;SDS011;25735;48.122;11.422;2022-12-11T05:49:45;24.08;;;13.35;;
40044;SDS011;25735;48.122;11.422;2022-12-11T05:52:11;21.48;;;13.27;;
40044;SDS011;25735;48.122;11.422;2022-12-11T05:54:37;25.55;;;13.55;;
40044;SDS011;25735;48.122;11.422;2022-12-11T05:57:02;23.67;;;14.73;;
40044;SDS011;25735;48.122;11.422;2022-12-11T05:59:27;22.20;;;13.10;;
40044;SDS011;25735;48.122;11.422;2022-12-11T06:01:53;27.08;;;15.02;;
40044;SDS011;25735;48.122;11.422;2022-12-11T06:04:18;26.85;;;14.52;;
40044;SDS011;25735;48.122;11.422;2022-12-11T06:06:43;28.48;;;15.07;;
40044;SDS011;25735;48.122;11.422;2022-12-11T06:09:10;23.65;;;12.95;;
40044;SDS011;25735;48.122;11.422;2022-12-11T06:11:37;23.13;;;13.05;;
40044;SDS011;25735;48.122;11.422;2022-12-11T06:14:03;23.52;;;12.48;;
40044;SDS011;25735;48.122;11.422;2022-12-11T06:16:28;22.55;;;12.95;;
40044;SDS011;25735;48.122;11.422;2022-12-11T06:18:53;24.00;;;12.98;;
40044;SDS011;25735;48.122;11.422;2022-12-11T06:21:20;27.88;;;14.55;;
40044;SDS011;25735;48.122;11.422;2022-12-11T06:23:50;25.88;;;13.98;;
40044;SDS011;25735;48.122;11.422;2022-12-11T06:26:16;23.17;;;14.20;;
40044;SDS011;25735;48.122;11.422;2022-12-11T06:28:43;25.80;;;14.05;;
40044;SDS011;25735;48.122;11.422;2022-12-11T06:31:09;22.02;;;14.10;;
40044;SDS011;25735;48.122;11.422;2022-12-11T06:33:34;23.42;;;12.77;;
40044;SDS011;25735;48.122;11.422;2022-12-11T06:36:01;24.58;;;13.40;;
40044;SDS011;25735;48.122;11.422;2022-12-11T06:38:27;26.38;;;15.10;;
40044;SDS011;25735;48.122;11.422;2022-12-11T06:40:56;28.65;;;14.82;;
40044;SDS011;25735;48.122;11.422;2022-12-11T06:43:22;23.63;;;12.50;;
40044;SDS011;25735;48.122;11.422;2022-12-11T06:45:48;22.77;;;12.45;;
40044;SDS011;25735;48.122;11.422;2022-12-11T06:48:14;25.23;;;13.95;;
40044;SDS011;25735;48.122;11.422;2022-12-11T06:50:39;25.30;;;14.32;;
40044;SDS011;25735;48.122;11.422;2022-12-11T06:53:04;21.15;;;12.40;;
40044;SDS011;25735;48.122;11.422;2022-12-11T06:55:29;25.60;;;14.18;;
40044;SDS011;25735;48.122;11.422;2022-12-11T06:57:55;24.35;;;12.85;;
40044;SDS011;25735;48.122;11.422;2022-12-11T07:00:20;25.27;;;14.20;;
40044;SDS011;25735;48.122;11.422;2022-12-11T07:02:45;23.25;;;12.75;;
40044;SDS011;25735;48.122;11.422;2022-12-11T07:05:10;23.15;;;13.93;;
40044;SDS011;25735;48.122;11.422;2022-12-11T07:07:36;27.10;;;13.50;;
40044;SDS011;25735;48.122;11.422;2022-12-11T07:10:02;20.50;;;12.07;;
40044;SDS011;25735;48.122;11.422;2022-12-11T07:12:27;23.70;;;13.10;;
40044;SDS011;25735;48.122;11.422;2022-12-11T07:14:53;21.92;;;12.57;;
40044;SDS011;25735;48.122;11.422;2022-12-11T07:17:18;20.55;;;12.13;;
40044;SDS011;25735;48.122;11.422;2022-12-11T07:19:43;23.10;;;13.75;;
40044;SDS011;25735;48.122;11.422;2022-12-11T07:22:08;21.73;;;12.02;;
40044;SDS011;25735;48.122;11.422;2022-12-11T07:24:34;24.05;;;13.30;;
40044;SDS011;25735;48.122;11.422;2022-12-11T07:26:59;21.58;;;12.35;;
40044;SDS011;25735;48.122;11.422;2022-12-11T07:29:24;22.55;;;13.50;;
40044;SDS011;25735;48.122;11.422;2022-12-11T07:31:49;25.52;;;14.23;;
40044;SDS011;25735;48.122;11.422;2022-12-11T07:34:15;23.60;;;13.13;;
40044;SDS011;25735;48.122;11.422;2022-12-11T07:36:41;22.52;;;13.20;;
40044;SDS011;25735;48.122;11.422;2022-12-11T07:39:06;23.13;;;13.98;;
40044;SDS011;25735;48.122;11.422;2022-12-11T07:41:33;23.23;;;13.13;;
40044;SDS011;25735;48.122;11.422;2022-12-11T07:43:58;23.98;;;14.48;;
40044;SDS011;25735;48.122;11.422;2022-12-11T07:46:25;25.75;;;15.27;;
40044;SDS011;25735;48.122;11.422;2022-12-11T07:48:51;28.70;;;16.20;;
40044;SDS011;25735;48.122;11.422;2022-12-11T07:53:50;23.50;;;13.85;;
40044;SDS011;25735;48.122;11.422;2022-12-11T07:56:16;24.13;;;14.68;;
40044;SDS011;25735;48.122;11.422;2022-12-11T07:58:42;24.27;;;15.65;;
40044;SDS011;25735;48.122;11.422;2022-12-11T08:01:11;25.73;;;15.10;;
40044;SDS011;25735;48.122;11.422;2022-12-11T08:03:41;25.77;;;15.25;;
40044;SDS011;25735;48.122;11.422;2022-12-11T08:06:07;23.48;;;15.05;;
40044;SDS011;25735;48.122;11.422;2022-12-11T08:08:33;26.55;;;14.52;;
40044;SDS011;25735;48.122;11.422;2022-12-11T08:11:02;22.63;;;13.93;;
40044;SDS011;25735;48.122;11.422;2022-12-11T08:13:27;23.40;;;13.40;;
40044;SDS011;25735;48.122;11.422;2022-12-11T08:15:53;21.05;;;12.93;;
40044;SDS011;25735;48.122;11.422;2022-12-11T08:18:18;25.52;;;13.35;;
40044;SDS011;25735;48.122;11.422;2022-12-11T08:20:43;25.75;;;14.38;;
40044;SDS011;25735;48.122;11.422;2022-12-11T08:23:08;25.35;;;14.45;;
40044;SDS011;25735;48.122;11.422;2022-12-11T08:25:34;26.02;;;15.43;;
40044;SDS011;25735;48.122;11.422;2022-12-11T08:27:59;23.20;;;14.30;;
40044;SDS011;25735;48.122;11.422;2022-12-11T08:30:24;23.90;;;14.05;;
40044;SDS011;25735;48.122;11.422;2022-12-11T08:32:50;21.75;;;12.73;;
40044;SDS011;25735;48.122;11.422;2022-12-11T08:35:15;25.92;;;14.35;;
40044;SDS011;25735;48.122;11.422;2022-12-11T08:37:40;21.52;;;13.13;;
40044;SDS011;25735;48.122;11.422;2022-12-11T08:40:06;21.73;;;12.90;;
40044;SDS011;25735;48.122;11.422;2022-12-11T08:42:31;21.77;;;12.55;;
40044;SDS011;25735;48.122;11.422;2022-12-11T08:44:57;24.05;;;14.07;;
40044;SDS011;25735;48.122;11.422;2022-12-11T08:47:22;22.20;;;12.82;;
40044;SDS011;25735;48.122;11.422;2022-12-11T08:49:47;24.58;;;12.95;;
40044;SDS011;25735;48.122;11.422;2022-12-11T08:52:12;21.20;;;13.77;;
40044;SDS011;25735;48.122;11.422;2022-12-11T08:54:38;21.98;;;13.45;;
40044;SDS011;25735;48.122;11.422;2022-12-11T08:57:03;21.45;;;13.57;;
40044;SDS011;25735;48.122;11.422;2022-12-11T08:59:29;31.80;;;17.63;;
40044;SDS011;25735;48.122;11.422;2022-12-11T09:01:54;22.58;;;13.68;;
40044;SDS011;25735;48.122;11.422;2022-12-11T09:04:20;18.83;;;11.85;;
40044;SDS011;25735;48.122;11.422;2022-12-11T09:06:46;20.88;;;11.55;;
40044;SDS011;25735;48.122;11.422;2022-12-11T09:09:11;21.98;;;12.88;;
40044;SDS011;25735;48.122;11.422;2022-12-11T09:11:36;19.35;;;11.82;;
40044;SDS011;25735;48.122;11.422;2022-12-11T09:14:02;17.88;;;11.60;;
40044;SDS011;25735;48.122;11.422;2022-12-11T09:16:28;17.60;;;11.55;;
40044;SDS011;25735;48.122;11.422;2022-12-11T09:18:55;18.15;;;11.50;;
40044;SDS011;25735;48.122;11.422;2022-12-11T09:21:22;16.35;;;10.32;;
40044;SDS011;25735;48.122;11.422;2022-12-11T09:23:56;18.38;;;10.73;;
40044;SDS011;25735;48.122;11.422;2022-12-11T09:26:23;17.80;;;10.32;;
40044;SDS011;25735;48.122;11.422;2022-12-11T09:28:49;14.73;;;9.23;;
40044;SDS011;25735;48.122;11.422;2022-12-11T09:31:19;20.77;;;11.38;;
40044;SDS011;25735;48.122;11.422;2022-12-11T09:33:49;18.63;;;10.60;;
40044;SDS011;25735;48.122;11.422;2022-12-11T09:36:16;18.58;;;12.27;;
40044;SDS011;25735;48.122;11.422;2022-12-11T09:38:41;16.40;;;10.55;;
40044;SDS011;25735;48.122;11.422;2022-12-11T09:43:46;20.95;;;11.65;;
40044;SDS011;25735;48.122;11.422;2022-12-11T09:46:16;12.80;;;8.40;;
40044;SDS011;25735;48.122;11.422;2022-12-11T09:48:43;18.95;;;11.30;;
40044;SDS011;25735;48.122;11.422;2022-12-11T09:51:20;15.45;;;10.82;;
40044;SDS011;25735;48.122;11.422;2022-12-11T09:53:58;15.60;;;9.98;;
40044;SDS011;25735;48.122;11.422;2022-12-11T09:56:32;16.00;;;9.95;;
40044;SDS011;25735;48.122;11.422;2022-12-11T10:02:26;13.68;;;9.13;;
40044;SDS011;25735;48.122;11.422;2022-12-11T10:05:06;13.38;;;8.38;;
40044;SDS011;25735;48.122;11.422;2022-12-11T10:07:49;15.82;;;9.68;;
40044;SDS011;25735;48.122;11.422;2022-12-11T10:10:40;14.23;;;8.95;;
40044;SDS011;25735;48.122;11.422;2022-12-11T10:13:15;14.98;;;10.15;;
40044;SDS011;25735;48.122;11.422;2022-12-11T10:18:24;16.42;;;10.32;;
40044;SDS011;25735;48.122;11.422;2022-12-11T10:20:52;15.65;;;9.60;;
40044;SDS011;25735;48.122;11.422;2022-12-11T10:23:20;18.13;;;9.60;;
40044;SDS011;25735;48.122;11.422;2022-12-11T10:26:08;14.45;;;9.15;;
40044;SDS011;25735;48.122;11.422;2022-12-11T10:28:38;13.68;;;9.10;;
40044;SDS011;25735;48.122;11.422;2022-12-11T10:33:42;15.93;;;9.75;;
40044;SDS011;25735;48.122;11.422;2022-12-11T10:36:09;17.25;;;9.93;;
40044;SDS011;25735;48.122;11.422;2022-12-11T10:38:38;13.18;;;9.15;;
40044;SDS011;25735;48.122;11.422;2022-12-11T10:41:14;15.35;;;10.27;;
40044;SDS011;25735;48.122;11.422;2022-12-11T10:43:46;13.07;;;8.35;;
40044;SDS011;25735;48.122;11.422;2022-12-11T10:46:14;13.15;;;8.93;;
40044;SDS011;25735;48.122;11.422;2022-12-11T10:48:46;12.93;;;8.80;;
40044;SDS011;25735;48.122;11.422;2022-12-11T10:51:17;12.35;;;9.30;;
40044;SDS011;25735;48.122;11.422;2022-12-11T10:53:48;14.20;;;10.43;;
40044;SDS011;25735;48.122;11.422;2022-12-11T10:56:28;15.15;;;9.70;;
40044;SDS011;25735;48.122;11.422;2022-12-11T10:58:55;14.40;;;9.43;;
40044;SDS011;25735;48.122;11.422;2022-12-11T11:01:23;14.13;;;9.63;;
40044;SDS011;25735;48.122;11.422;2022-12-11T11:03:52;13.57;;;8.60;;
40044;SDS011;25735;48.122;11.422;2022-12-11T11:06:29;13.75;;;9.80;;
40044;SDS011;25735;48.122;11.422;2022-12-11T11:08:56;12.35;;;8.30;;
40044;SDS011;25735;48.122;11.422;2022-12-11T11:11:30;11.98;;;8.02;;
40044;SDS011;25735;48.122;11.422;2022-12-11T11:14:04;12.98;;;8.18;;
40044;SDS011;25735;48.122;11.422;2022-12-11T11:16:31;15.15;;;9.50;;
40044;SDS011;25735;48.122;11.422;2022-12-11T11:19:01;12.70;;;8.43;;
40044;SDS011;25735;48.122;11.422;2022-12-11T11:21:26;12.75;;;9.15;;
40044;SDS011;25735;48.122;11.422;2022-12-11T11:23:54;15.05;;;8.57;;
40044;SDS011;25735;48.122;11.422;2022-12-11T11:26:20;10.93;;;7.40;;
40044;SDS011;25735;48.122;11.422;2022-12-11T11:28:47;10.25;;;7.40;;
40044;SDS011;25735;48.122;11.422;2022-12-11T11:31:20;12.93;;;9.15;;
40044;SDS011;25735;48.122;11.422;2022-12-11T11:33:56;11.50;;;7.43;;
40044;SDS011;25735;48.122;11.422;2022-12-11T11:36:27;10.90;;;7.50;;
40044;SDS011;25735;48.122;11.422;2022-12-11T11:44:22;10.45;;;6.95;;
40044;SDS011;25735;48.122;11.422;2022-12-11T11:47:29;8.48;;;6.15;;
40044;SDS011;25735;48.122;11.422;2022-12-11T11:52:34;11.48;;;7.13;;
40044;SDS011;25735;48.122;11.422;2022-12-11T11:57:56;10.60;;;6.13;;
40044;SDS011;25735;48.122;11.422;2022-12-11T12:00:27;11.32;;;7.28;;
40044;SDS011;25735;48.122;11.422;2022-12-11T12:02:58;8.68;;;6.55;;
40044;SDS011;25735;48.122;11.422;2022-12-11T12:08:36;10.15;;;7.30;;
40044;SDS011;25735;48.122;11.422;2022-12-11T12:11:18;8.90;;;6.60;;
40044;SDS011;25735;48.122;11.422;2022-12-11T12:13:52;9.57;;;5.50;;
40044;SDS011;25735;48.122;11.422;2022-12-11T12:19:44;8.88;;;6.00;;
40044;SDS011;25735;48.122;11.422;2022-12-11T12:27:50;11.27;;;6.88;;
40044;SDS011;25735;48.122;11.422;2022-12-11T12:30:22;10.15;;;7.10;;
40044;SDS011;25735;48.122;11.422;2022-12-11T12:32:53;8.05;;;6.22;;
40044;SDS011;25735;48.122;11.422;2022-12-11T12:35:37;9.98;;;5.30;;
40044;SDS011;25735;48.122;11.422;2022-12-11T12:38:14;8.15;;;5.32;;
40044;SDS011;25735;48.122;11.422;2022-12-11T12:40:44;8.48;;;6.05;;
40044;SDS011;25735;48.122;11.422;2022-12-11T12:43:25;8.25;;;5.97;;
40044;SDS011;25735;48.122;11.422;2022-12-11T12:48:51;8.18;;;5.50;;
40044;SDS011;25735;48.122;11.422;2022-12-11T12:51:19;7.57;;;5.88;;
40044;SDS011;25735;48.122;11.422;2022-12-11T12:53:52;6.55;;;4.63;;
40044;SDS011;25735;48.122;11.422;2022-12-11T12:56:20;7.15;;;5.35;;
40044;SDS011;25735;48.122;11.422;2022-12-11T12:58:46;7.93;;;5.45;;
40044;SDS011;25735;48.122;11.422;2022-12-11T13:03:59;8.10;;;5.13;;
40044;SDS011;25735;48.122;11.422;2022-12-11T13:06:40;6.47;;;4.97;;
40044;SDS011;25735;48.122;11.422;2022-12-11T13:09:12;6.25;;;4.35;;
40044;SDS011;25735;48.122;11.422;2022-12-11T13:11:41;8.63;;;5.55;;
40044;SDS011;25735;48.122;11.422;2022-12-11T13:14:20;6.90;;;4.95;;
40044;SDS011;25735;48.122;11.422;2022-12-11T13:16:52;6.78;;;4.60;;
40044;SDS011;25735;48.122;11.422;2022-12-11T13:19:31;7.78;;;5.45;;
40044;SDS011;25735;48.122;11.422;2022-12-11T13:22:03;8.88;;;5.35;;
40044;SDS011;25735;48.122;11.422;2022-12-11T13:24:45;8.23;;;5.10;;
40044;SDS011;25735;48.122;11.422;2022-12-11T13:27:26;7.82;;;5.20;;
40044;SDS011;25735;48.122;11.422;2022-12-11T13:30:06;7.53;;;4.53;;
40044;SDS011;25735;48.122;11.422;2022-12-11T13:35:31;7.35;;;4.65;;
40044;SDS011;25735;48.122;11.422;2022-12-11T13:38:14;9.70;;;5.22;;
40044;SDS011;25735;48.122;11.422;2022-12-11T13:40:42;6.90;;;4.63;;
40044;SDS011;25735;48.122;11.422;2022-12-11T13:43:17;5.35;;;4.10;;
40044;SDS011;25735;48.122;11.422;2022-12-11T13:45:50;6.53;;;4.30;;
40044;SDS011;25735;48.122;11.422;2022-12-11T13:48:28;7.63;;;4.97;;
40044;SDS011;25735;48.122;11.422;2022-12-11T13:50:58;6.53;;;4.65;;
40044;SDS011;25735;48.122;11.422;2022-12-11T13:53:25;5.88;;;4.20;;
40044;SDS011;25735;48.122;11.422;2022-12-11T13:56:03;9.88;;;5.38;;
40044;SDS011;25735;48.122;11.422;2022-12-11T13:58:34;7.60;;;4.95;;
40044;SDS011;25735;48.122;11.422;2022-12-11T14:03:31;6.65;;;4.35;;
40044;SDS011;25735;48.122;11.422;2022-12-11T14:05:58;6.78;;;4.38;;
40044;SDS011;25735;48.122;11.422;2022-12-11T14:08:26;7.10;;;4.65;;
40044;SDS011;25735;48.122;11.422;2022-12-11T14:10:57;7.70;;;4.45;;
40044;SDS011;25735;48.122;11.422;2022-12-11T14:13:23;6.75;;;4.40;;
40044;SDS011;25735;48.122;11.422;2022-12-11T14:15:51;7.85;;;4.00;;
40044;SDS011;25735;48.122;11.422;2022-12-11T14:18:20;6.28;;;4.05;;
40044;SDS011;25735;48.122;11.422;2022-12-11T14:21:00;6.75;;;4.13;;
40044;SDS011;25735;48.122;11.422;2022-12-11T14:23:32;7.97;;;4.13;;
40044;SDS011;25735;48.122;11.422;2022-12-11T14:25:59;7.38;;;4.47;;
40044;SDS011;25735;48.122;11.422;2022-12-11T14:28:37;8.55;;;4.82;;
40044;SDS011;25735;48.122;11.422;2022-12-11T14:31:06;7.30;;;4.88;;
40044;SDS011;25735;48.122;11.422;2022-12-11T14:33:34;6.97;;;4.68;;
40044;SDS011;25735;48.122;11.422;2022-12-11T14:36:02;8.65;;;5.20;;
40044;SDS011;25735;48.122;11.422;2022-12-11T14:38:30;8.60;;;5.20;;
40044;SDS011;25735;48.122;11.422;2022-12-11T14:41:01;8.55;;;4.97;;
40044;SDS011;25735;48.122;11.422;2022-12-11T14:43:31;7.47;;;5.13;;
40044;SDS011;25735;48.122;11.422;2022-12-11T14:46:01;8.48;;;4.68;;
40044;SDS011;25735;48.122;11.422;2022-12-11T14:51:00;9.63;;;5.53;;
40044;SDS011;25735;48.122;11.422;2022-12-11T14:53:28;7.53;;;5.13;;
40044;SDS011;25735;48.122;11.422;2022-12-11T14:56:02;10.48;;;6.47;;
40044;SDS011;25735;48.122;11.422;2022-12-11T14:58:29;9.98;;;5.82;;
40044;SDS011;25735;48.122;11.422;2022-12-11T15:01:01;8.80;;;5.72;;
40044;SDS011;25735;48.122;11.422;2022-12-11T15:03:36;11.15;;;6.07;;
40044;SDS011;25735;48.122;11.422;2022-12-11T15:06:17;10.10;;;6.75;;
40044;SDS011;25735;48.122;11.422;2022-12-11T15:08:47;10.82;;;5.88;;
40044;SDS011;25735;48.122;11.422;2022-12-11T15:11:13;12.07;;;6.82;;
40044;SDS011;25735;48.122;11.422;2022-12-11T15:13:53;10.10;;;6.00;;
40044;SDS011;25735;48.122;11.422;2022-12-11T15:16:21;9.10;;;5.93;;
40044;SDS011;25735;48.122;11.422;2022-12-11T15:18:49;10.35;;;6.53;;
40044;SDS011;25735;48.122;11.422;2022-12-11T15:21:16;23.63;;;11.90;;
40044;SDS011;25735;48.122;11.422;2022-12-11T15:23:52;24.98;;;14.13;;
40044;SDS011;25735;48.122;11.422;2022-12-11T15:26:20;12.68;;;8.43;;
40044;SDS011;25735;48.122;11.422;2022-12-11T15:28:58;14.98;;;8.30;;